CDT,Max TemperatureF,Mean TemperatureF,Min TemperatureF,Max Dew PointF,MeanDew PointF,Min DewpointF,Max Humidity, Mean Humidity, Min Humidity, Max Sea Level PressureIn, Mean Sea Level PressureIn, Min Sea Level PressureIn, Max VisibilityMiles, Mean VisibilityMiles, Min VisibilityMiles, Max Wind SpeedMPH, Mean Wind SpeedMPH, Max Gust SpeedMPH,PrecipitationIn, CloudCover, Events, WindDirDegrees
2012-10-1,69,58,48,52,46,43,88,66,38,29.88,29.84,29.79,10,10,10,12,2,16,0.00,0,,24
2012-10-2,71,56,42,50,45,39,94,70,38,29.93,29.89,29.86,10,9,0,8,1,,0.00,1,,335
2012-10-3,73,63,53,55,51,48,88,70,47,30.06,30.00,29.93,10,10,8,8,2,,0.00,1,,183
2012-10-4,77,64,51,55,51,43,88,68,47,30.23,30.15,30.07,10,10,10,15,6,21,0.00,4,,221
2012-10-5,51,44,37,43,40,34,93,80,62,30.28,30.23,30.20,10,10,7,10,5,17,0.32,6,Thunderstorm,21
2012-10-6,46,40,33,37,32,30,93,73,53,30.32,30.29,30.26,10,10,10,7,2,,0.00,5,,334
2012-10-7,53,42,30,36,30,27,93,64,35,30.34,30.27,30.19,10,10,5,8,2,,0.00,1,,309
2012-10-8,60,44,28,36,31,27,93,64,31,30.23,30.16,30.06,10,10,0,15,3,23,0.00,0,,203
2012-10-9,68,52,37,54,41,34,94,66,37,30.11,30.01,29.93,10,10,2,16,7,23,0.10,3,,198
2012-10-10,59,47,35,43,33,27,93,62,29,30.33,30.23,30.12,10,10,10,9,2,,0.00,1,,325
2012-10-11,59,48,37,52,40,30,94,72,58,30.22,30.18,30.12,10,10,4,10,5,,0.00,6,,156
2012-10-12,60,56,51,54,48,43,94,79,63,30.35,30.26,30.19,10,10,8,16,6,16,0.00,7,,90
2012-10-13,73,65,57,63,59,54,94,80,65,30.18,29.99,29.80,10,9,3,17,9,26,0.53,7,Thunderstorm,180
2012-10-14,69,58,48,61,52,43,94,72,43,30.03,29.83,29.67,10,10,4,17,9,25,0.55,5,,246
2012-10-15,75,58,42,46,43,37,93,64,31,30.06,29.99,29.92,10,10,4,6,1,,0.00,0,,136
2012-10-16,80,65,50,48,44,37,82,49,24,29.93,29.76,29.63,10,10,10,22,8,29,0.00,0,,202
2012-10-17,66,57,48,57,50,41,88,73,48,29.68,29.57,29.44,10,10,3,16,9,24,0.85,3,Thunderstorm,216
2012-10-18,62,54,46,43,31,27,87,45,29,29.72,29.68,29.65,10,10,10,23,10,38,0.00,4,,267
2012-10-19,53,48,44,41,38,34,81,63,47,29.86,29.75,29.65,10,10,4,15,10,32,0.01,8,,288
2012-10-20,71,55,39,43,39,36,87,58,28,29.93,29.86,29.80,10,10,7,8,3,,0.00,2,,172
2012-10-21,78,66,55,63,53,43,83,63,52,29.92,29.88,29.84,10,10,10,12,7,,0.00,3,,168
2012-10-22,82,74,66,64,63,61,88,72,54,29.95,29.90,29.87,10,10,8,21,8,25,0.00,4,,189
2012-10-23,82,72,62,63,60,55,94,67,50,29.96,29.91,29.84,10,10,8,17,9,22,0.35,4,Thunderstorm,193
2012-10-24,82,73,64,63,59,55,77,63,48,29.96,29.91,29.84,10,10,10,20,9,26,0.00,2,,182
2012-10-25,75,60,44,63,50,34,87,73,61,30.23,29.95,29.80,10,10,4,18,10,26,0.04,5,,255
2012-10-26,46,40,35,34,27,25,70,58,46,30.40,30.34,30.24,10,10,10,13,8,22,0.00,3,,360
2012-10-27,46,37,28,28,26,23,86,65,46,30.38,30.32,30.25,10,10,8,10,5,,0.00,0,,5
2012-10-28,50,40,30,28,25,21,80,60,35,30.34,30.29,30.25,10,10,8,8,4,18,0.00,0,,8
2012-10-29,50,38,26,30,26,21,93,66,40,30.37,30.28,30.16,10,10,1,8,1,,0.00,3,,70
2012-10-30,57,42,26,32,24,19,93,55,25,30.16,30.06,29.98,10,10,9,7,1,,0.00,1,,356
2012-10-31,59,44,30,32,27,23,86,51,29,30.07,30.03,30.00,10,10,0,8,2,17,0.00,0,,330